Terminal Aerodrome Forecast
Issued by NWS

Home | Current Version | Previous Version | Text Only | Print | Product List | Glossary On
Versions: 1 2 3 4 5 6 7 8 9 10 11 12 13 14 15
009
FTUS43 KMQT 281125
TAFCMX
TAF
KCMX 281125Z 2812/2912 21008KT P6SM SCT200
     FM281500 14011KT P6SM SCT045 BKN200
     FM281700 14010KT P6SM VCSH SCT040 OVC110
     FM281800 13010G19KT P6SM VCSH SCT025 OVC070
     FM282000 13010G19KT 6SM -SHRA BKN020 OVC035
     FM282300 10008KT 5SM -SHRA SCT008 OVC012
     FM290200 10007KT 4SM -SHRA SCT004 OVC008
     FM290400 09005KT 1 1/2SM BR VCSH OVC004=

USA.gov is the U.S. government's official web portal to all federal, state and local government web resources and services.